ADDS METAR Data INFO
IDs: Format: Raw Decoded Include TAF

Data at: 0713 UTC 24 Nov 2017

METAR for:KDLZ (Delaware Muni, OH, US)
Text:KDLZ 240658Z AUTO 00000KT 10SM CLR M01/M03 A2999 RMK AO2
Temperature: -1.0°C ( 30°F)
Dewpoint: -3.0°C ( 27°F) [RH = 86%]
Pressure (altimeter):29.99 inches Hg (1015.7 mb)
Winds:calm
Visibility:10 or more sm (16+ km)
Ceiling:at least 12,000 feet AGL
Clouds:sky clear below 12,000 feet AGL
QC Flag:automated observation with no human augmentation